Time;durP1;ratioP1;P1;durP2;ratioP2;P2;SDS_P1;SDS_P2;PMS_P1;PMS_P2;Temp;Humidity;BMP_temperature;BMP_pressure;BME280_temperature;BME280_humidity;BME280_pressure;Samples;Min_cycle;Max_cycle;Signal;HPM_P1;HPM_P2
2022/05/06 00:00:25;;;;;;;0.10;0.10;;;;;;;23.63;36.87;102019.81;5111123;27;20043;-30
2022/05/06 00:02:51;;;;;;;0.10;0.10;;;;;;;23.63;36.85;102017.03;5121330;27;20039;-34
2022/05/06 00:05:17;;;;;;;0.10;0.10;;;;;;;23.63;36.87;102015.06;5120329;27;20082;-31
2022/05/06 00:07:43;;;;;;;0.10;0.10;;;;;;;23.64;36.83;102019.50;5115056;27;20043;-30
2022/05/06 00:10:10;;;;;;;0.10;0.10;;;;;;;23.64;36.85;102016.72;5112099;28;20047;-30
2022/05/06 00:12:35;;;;;;;0.10;0.10;;;;;;;23.64;36.79;102010.34;5119996;28;20075;-34
2022/05/06 00:15:01;;;;;;;0.10;0.10;;;;;;;23.64;36.84;102027.84;5101450;28;20433;-31
2022/05/06 00:17:27;;;;;;;0.10;0.10;;;;;;;23.64;36.72;102022.28;5098954;28;20043;-29
2022/05/06 00:19:52;;;;;;;0.10;0.10;;;;;;;23.65;36.72;102029.53;5103737;28;20100;-31
2022/05/06 00:22:19;;;;;;;0.10;0.10;;;;;;;23.65;36.75;102025.94;5120824;27;20048;-32
2022/05/06 00:24:44;;;;;;;0.10;0.10;;;;;;;23.64;36.68;102022.28;5118110;28;20414;-34
2022/05/06 00:27:10;;;;;;;0.10;0.10;;;;;;;23.65;36.50;102031.50;5118777;27;20040;-32
2022/05/06 00:29:36;;;;;;;0.10;0.10;;;;;;;23.64;36.72;102027.84;5115040;28;20149;-31
2022/05/06 00:32:02;;;;;;;0.10;0.10;;;;;;;23.64;36.72;102038.97;5115062;28;20059;-30
2022/05/06 00:34:28;;;;;;;0.10;0.10;;;;;;;23.66;36.67;102035.94;5121817;28;20060;-30
2022/05/06 00:36:55;;;;;;;0.10;0.10;;;;;;;23.66;36.69;102035.94;5121548;27;20043;-30
2022/05/06 00:39:21;;;;;;;0.10;0.10;;;;;;;23.66;36.72;102033.16;5117716;27;20130;-30
2022/05/06 00:41:47;;;;;;;0.10;0.10;;;;;;;23.65;36.69;102029.53;5117164;27;20067;-31
2022/05/06 00:44:12;;;;;;;0.10;0.10;;;;;;;23.66;36.74;102036.78;5118289;28;20043;-30
2022/05/06 00:46:38;;;;;;;0.10;0.10;;;;;;;23.65;36.70;102035.09;5116396;28;20047;-31
2022/05/06 00:49:07;;;;;;;0.10;0.10;;;;;;;23.66;36.71;102036.78;5122124;27;20371;-31
2022/05/06 00:51:33;;;;;;;0.10;0.10;;;;;;;23.66;36.69;102038.72;5126929;27;20077;-31
2022/05/06 00:53:59;;;;;;;0.10;0.10;;;;;;;23.67;36.91;102034.84;5123283;27;20050;-30
2022/05/06 00:56:25;;;;;;;0.10;0.10;;;;;;;23.66;36.66;102035.94;5117947;28;20043;-34
2022/05/06 00:58:52;;;;;;;0.10;0.10;;;;;;;23.66;36.76;102035.94;5120157;27;20394;-32
2022/05/06 01:01:18;;;;;;;0.10;0.10;;;;;;;23.66;36.79;102034.00;5121480;27;20486;-30
2022/05/06 01:03:44;;;;;;;0.10;0.10;;;;;;;23.67;36.70;102038.44;5099446;28;20365;-31
2022/05/06 01:06:13;;;;;;;0.10;0.10;;;;;;;23.67;36.57;102032.88;5120559;28;20526;-33
2022/05/06 01:08:41;;;;;;;0.10;0.10;;;;;;;23.67;36.62;102035.66;5096517;27;20075;-30
2022/05/06 01:11:07;;;;;;;0.10;0.10;;;;;;;23.67;36.66;102034.84;5118203;28;20078;-31
2022/05/06 01:13:41;;;;;;;0.10;0.10;;;;;;;23.69;36.64;102035.38;5119756;28;20047;-30
2022/05/06 01:16:07;;;;;;;0.10;0.10;;;;;;;23.67;36.65;102032.88;5113445;28;20101;-34
2022/05/06 01:18:33;;;;;;;0.10;0.10;;;;;;;23.68;36.75;102036.50;5118260;27;20370;-30
2022/05/06 01:21:00;;;;;;;0.10;0.10;;;;;;;23.67;36.65;102038.44;5118937;27;20101;-31
2022/05/06 01:23:26;;;;;;;0.10;0.10;;;;;;;23.68;36.65;102042.88;5121525;27;20130;-30
2022/05/06 01:25:52;;;;;;;0.10;0.10;;;;;;;23.68;36.44;102040.09;5117299;27;20051;-30
2022/05/06 01:28:21;;;;;;;0.10;0.10;;;;;;;23.68;36.52;102045.66;5116932;27;20067;-36
2022/05/06 01:30:48;;;;;;;0.10;0.10;;;;;;;23.69;36.50;102035.38;5118664;28;20130;-31
2022/05/06 01:33:15;;;;;;;0.10;0.10;;;;;;;23.68;36.50;102042.88;5119072;28;20134;-32
2022/05/06 01:35:45;;;;;;;0.10;0.10;;;;;;;23.69;36.56;102054.84;5119889;27;20062;-32
2022/05/06 01:38:17;;;;;;;0.10;0.10;;;;;;;23.69;36.59;102054.84;5117044;27;20498;-31
2022/05/06 01:40:46;;;;;;;0.10;0.10;;;;;;;23.68;36.71;102053.19;5101584;28;20089;-33
2022/05/06 01:43:17;;;;;;;0.10;0.10;;;;;;;23.70;36.61;102059.28;5098781;28;20067;-31
2022/05/06 01:45:44;;;;;;;0.10;0.10;;;;;;;23.69;36.48;102050.09;5116739;27;20099;-29
2022/05/06 01:48:11;;;;;;;0.10;0.10;;;;;;;23.70;36.51;102056.50;5117413;27;20039;-32
2022/05/06 01:50:38;;;;;;;0.10;0.10;;;;;;;23.70;36.46;102051.75;5115300;27;20131;-29
2022/05/06 01:53:05;;;;;;;0.10;0.10;;;;;;;23.70;36.42;102046.19;5117606;28;20044;-32
2022/05/06 01:55:31;;;;;;;0.10;0.10;;;;;;;23.69;36.50;102044.53;5117459;27;20075;-31
2022/05/06 01:57:56;;;;;;;0.10;0.10;;;;;;;23.69;36.65;102052.06;5113838;27;20538;-30
2022/05/06 02:00:22;;;;;;;0.10;0.10;;;;;;;23.69;36.45;102049.28;5116470;27;20100;-29
2022/05/06 02:02:48;;;;;;;0.10;0.10;;;;;;;23.70;36.77;102048.16;5117978;27;20762;-30
2022/05/06 02:05:16;;;;;;;0.10;0.10;;;;;;;23.71;36.48;102049.84;5120121;28;20047;-31
2022/05/06 02:07:44;;;;;;;0.10;0.10;;;;;;;23.70;36.50;102048.16;5115893;27;20142;-31
2022/05/06 02:10:10;;;;;;;0.10;0.10;;;;;;;23.71;36.42;102047.06;5114560;27;20497;-30
2022/05/06 02:12:36;;;;;;;0.10;0.10;;;;;;;23.71;36.45;102049.84;5118967;27;20074;-31
2022/05/06 02:15:03;;;;;;;0.10;0.10;;;;;;;23.70;36.54;102054.53;5117566;28;20078;-30
2022/05/06 02:17:29;;;;;;;0.10;0.10;;;;;;;23.70;36.43;102048.97;5118374;27;20082;-30
2022/05/06 02:19:54;;;;;;;0.10;0.10;;;;;;;23.72;36.31;102051.50;5112522;28;20051;-30
2022/05/06 02:22:20;;;;;;;0.10;0.10;;;;;;;23.72;36.59;102052.31;5117269;27;20043;-30
2022/05/06 02:24:46;;;;;;;0.10;0.10;;;;;;;23.71;36.47;102050.66;5116736;27;20447;-29
2022/05/06 02:27:12;;;;;;;0.10;0.10;;;;;;;23.71;36.60;102052.63;5118125;28;20058;-29
2022/05/06 02:29:38;;;;;;;0.10;0.10;;;;;;;23.72;36.43;102055.09;5113193;27;20048;-30
2022/05/06 02:34:50;;;;;;;0.10;0.10;;;;;;;23.71;36.35;102056.22;5099335;28;20469;-30
2022/05/06 02:37:16;;;;;;;0.10;0.10;;;;;;;23.72;36.25;102054.28;5116532;28;20414;-30
2022/05/06 02:39:41;;;;;;;0.10;0.10;;;;;;;23.72;36.46;102059.84;5114618;27;20497;-30
2022/05/06 02:42:07;;;;;;;0.10;0.10;;;;;;;23.72;36.43;102054.28;5117921;27;20049;-31
2022/05/06 02:44:34;;;;;;;0.10;0.10;;;;;;;23.72;36.50;102059.84;5113440;27;20039;-30
2022/05/06 02:46:59;;;;;;;0.10;0.10;;;;;;;23.72;36.49;102052.31;5120884;27;20105;-31
2022/05/06 02:49:25;;;;;;;0.10;0.10;;;;;;;23.73;36.50;102053.97;5117449;27;20462;-31
2022/05/06 02:51:51;;;;;;;0.10;0.10;;;;;;;23.73;36.48;102053.16;5118185;27;20367;-29
2022/05/06 02:54:21;;;;;;;0.10;0.10;;;;;;;23.73;36.35;102050.38;5099114;27;20043;-31
2022/05/06 02:56:49;;;;;;;0.10;0.10;;;;;;;23.72;36.33;102046.75;5118293;27;20496;-30
2022/05/06 02:59:14;;;;;;;0.10;0.10;;;;;;;23.72;36.48;102046.75;5115859;27;20086;-30
2022/05/06 03:01:40;;;;;;;0.10;0.10;;;;;;;23.73;36.47;102044.81;5119647;27;20043;-31
2022/05/06 03:04:06;;;;;;;0.10;0.10;;;;;;;23.73;36.38;102045.63;5113751;27;20379;-30
2022/05/06 03:06:32;;;;;;;0.10;0.10;;;;;;;23.73;36.42;102045.63;5101600;28;20426;-31
2022/05/06 03:08:58;;;;;;;0.10;0.10;;;;;;;23.73;36.37;102037.28;5115384;27;20478;-30
2022/05/06 03:11:24;;;;;;;0.10;0.10;;;;;;;23.73;36.31;102050.38;5114166;28;20140;-30
2022/05/06 03:13:49;;;;;;;0.10;0.10;;;;;;;23.73;36.34;102044.81;5117860;27;20055;-32
2022/05/06 03:16:15;;;;;;;0.10;0.10;;;;;;;23.73;36.32;102051.19;5114861;28;20058;-30
2022/05/06 03:18:41;;;;;;;0.10;0.10;;;;;;;23.74;36.33;102046.47;5114288;27;20052;-30
2022/05/06 03:21:06;;;;;;;0.20;0.20;;;;;;;23.73;36.38;102045.63;5114943;27;20417;-30
2022/05/06 03:23:33;;;;;;;0.10;0.10;;;;;;;23.73;36.41;102040.06;5113880;27;20050;-29
2022/05/06 03:25:58;;;;;;;0.10;0.10;;;;;;;23.73;36.31;102039.25;5119713;28;20082;-29
2022/05/06 03:28:24;;;;;;;0.10;0.10;;;;;;;23.74;36.32;102040.91;5111474;27;20043;-30
2022/05/06 03:30:50;;;;;;;0.10;0.10;;;;;;;23.74;36.33;102043.69;5117349;27;20497;-30
2022/05/06 03:33:17;;;;;;;0.10;0.10;;;;;;;23.73;36.29;102045.63;5116455;28;20407;-31
2022/05/06 03:35:42;;;;;;;0.10;0.10;;;;;;;23.74;36.43;102041.72;5118622;27;20079;-31
2022/05/06 03:38:08;;;;;;;0.10;0.10;;;;;;;23.74;36.41;102049.25;5115956;28;20050;-31
2022/05/06 03:40:34;;;;;;;0.10;0.10;;;;;;;23.73;36.15;102045.63;5114420;27;20126;-30
2022/05/06 03:43:00;;;;;;;0.10;0.10;;;;;;;23.75;36.37;102048.97;5118120;28;20039;-30
2022/05/06 03:45:25;;;;;;;0.10;0.10;;;;;;;23.75;36.31;102048.97;5096536;28;20126;-31
2022/05/06 03:47:52;;;;;;;0.10;0.10;;;;;;;23.75;36.26;102048.16;5122694;27;20051;-31
2022/05/06 03:53:03;;;;;;;0.10;0.10;;;;;;;23.75;36.33;102046.19;5102475;28;20540;-30
2022/05/06 03:55:29;;;;;;;0.10;0.10;;;;;;;23.75;36.47;102051.75;5119147;27;20043;-32
2022/05/06 03:57:55;;;;;;;0.10;0.10;;;;;;;23.75;36.25;102045.38;5120670;27;20442;-31
2022/05/06 04:00:20;;;;;;;0.10;0.10;;;;;;;23.74;36.09;102055.63;5125463;27;20045;-30
2022/05/06 04:02:47;;;;;;;0.10;0.10;;;;;;;23.75;36.34;102050.94;5123613;27;20044;-31
2022/05/06 04:05:12;;;;;;;0.10;0.10;;;;;;;23.75;36.17;102046.19;5121682;27;20120;-30
2022/05/06 04:07:38;;;;;;;0.10;0.10;;;;;;;23.74;36.25;102047.28;5120210;27;20047;-30
2022/05/06 04:10:04;;;;;;;0.10;0.10;;;;;;;23.77;36.17;102057.03;5114682;27;20398;-32
2022/05/06 04:12:30;;;;;;;0.10;0.10;;;;;;;23.75;36.22;102060.09;5117994;28;20088;-31
2022/05/06 04:14:56;;;;;;;0.10;0.10;;;;;;;23.75;36.26;102051.75;5096815;28;20256;-31
2022/05/06 04:17:22;;;;;;;0.10;0.10;;;;;;;23.76;36.00;102056.19;5122071;27;20449;-29
2022/05/06 04:25:21;;;;;;;0.10;0.10;;;;;;;23.76;36.14;102058.16;5093867;28;20419;-30
2022/05/06 04:27:46;;;;;;;0.10;0.10;;;;;;;23.76;36.40;102063.72;5097727;28;20539;-30
2022/05/06 04:30:12;;;;;;;0.10;0.10;;;;;;;23.76;36.22;102061.75;5118048;27;20138;-31
2022/05/06 04:32:38;;;;;;;0.10;0.10;;;;;;;23.77;36.17;102062.59;5122003;27;20333;-27
2022/05/06 04:35:05;;;;;;;0.10;0.10;;;;;;;23.78;36.29;102061.47;5122864;27;20094;-29
2022/05/06 04:37:32;;;;;;;0.10;0.10;;;;;;;23.77;36.13;102076.50;5120986;27;20470;-33
2022/05/06 04:39:58;;;;;;;0.10;0.10;;;;;;;23.76;36.09;102078.47;5115655;27;20085;-32
2022/05/06 04:42:25;;;;;;;0.10;0.10;;;;;;;23.77;36.17;102085.69;5116945;27;20055;-34
2022/05/06 04:44:51;;;;;;;0.20;0.20;;;;;;;23.76;36.16;102089.59;5098706;28;20075;-30
2022/05/06 04:47:16;;;;;;;0.10;0.10;;;;;;;23.76;35.99;102089.59;5119351;27;20075;-30
2022/05/06 04:49:42;;;;;;;0.10;0.10;;;;;;;23.77;36.20;102090.41;5125383;27;20039;-31
2022/05/06 04:52:08;;;;;;;0.10;0.10;;;;;;;23.77;36.14;102094.03;5120575;28;20397;-31
2022/05/06 04:54:34;;;;;;;0.10;0.10;;;;;;;23.78;35.96;102095.69;5116304;27;20039;-29
2022/05/06 04:56:59;;;;;;;0.10;0.10;;;;;;;23.78;36.18;102100.41;5116368;27;20485;-32
2022/05/06 04:59:25;;;;;;;0.10;0.10;;;;;;;23.78;36.14;102103.19;5122232;27;20039;-31
2022/05/06 05:01:51;;;;;;;0.10;0.10;;;;;;;23.77;36.20;102105.16;5116981;27;20046;-31
2022/05/06 05:04:16;;;;;;;0.10;0.10;;;;;;;23.78;36.06;102105.97;5123236;27;20048;-30
2022/05/06 05:06:42;;;;;;;0.10;0.10;;;;;;;23.78;35.92;102111.53;5118207;28;20075;-31
2022/05/06 05:09:08;;;;;;;0.10;0.10;;;;;;;23.80;36.06;102116.84;5117611;27;20036;-29
2022/05/06 05:11:34;;;;;;;0.10;0.10;;;;;;;23.76;36.06;102117.41;5118303;28;20066;-30
2022/05/06 05:14:03;;;;;;;0.10;0.10;;;;;;;23.79;35.98;102115.97;5123694;27;20178;-29
2022/05/06 05:16:29;;;;;;;0.10;0.10;;;;;;;23.78;36.01;102117.94;5113544;27;20147;-31
2022/05/06 05:18:55;;;;;;;0.10;0.10;;;;;;;23.79;36.00;102118.75;5117473;27;20294;-29
2022/05/06 05:21:20;;;;;;;0.10;0.10;;;;;;;23.74;35.79;102114.06;5093324;28;20127;-31
2022/05/06 05:23:46;;;;;;;0.10;0.10;;;;;;;23.80;35.83;102116.84;5121257;28;20046;-31
2022/05/06 05:26:12;;;;;;;0.10;0.10;;;;;;;23.81;35.90;102113.75;5124037;27;20039;-32
2022/05/06 05:28:38;;;;;;;0.10;0.10;;;;;;;23.80;35.63;102120.44;5117275;27;20105;-28
2022/05/06 05:31:04;;;;;;;0.17;0.17;;;;;;;23.80;35.73;102122.41;5118782;28;20040;-31
2022/05/06 05:33:30;;;;;;;0.10;0.10;;;;;;;23.80;35.91;102119.63;5120405;27;20077;-30
2022/05/06 05:35:55;;;;;;;0.10;0.10;;;;;;;23.81;35.76;102118.50;5118700;27;20040;-31
2022/05/06 05:38:21;;;;;;;0.82;0.80;;;;;;;23.03;34.91;102119.72;5114349;27;20047;-43
2022/05/06 05:40:47;;;;;;;0.10;0.10;;;;;;;22.93;35.60;102111.41;5096886;28;20036;-40
2022/05/06 05:48:44;;;;;;;0.10;0.10;;;;;;;22.73;36.26;102121.34;5097261;28;20457;-44
2022/05/06 05:51:09;;;;;;;0.10;0.10;;;;;;;23.22;35.88;102125.53;5113571;28;20043;-43
2022/05/06 05:53:35;;;;;;;0.10;0.10;;;;;;;23.43;35.56;102121.63;5109660;28;20047;-44
2022/05/06 05:56:01;;;;;;;0.10;0.10;;;;;;;23.53;35.57;102129.97;5107415;27;20040;-44
2022/05/06 05:58:27;;;;;;;0.10;0.10;;;;;;;23.60;35.47;102128.81;5085316;27;20051;-44
2022/05/06 06:00:53;;;;;;;0.10;0.10;;;;;;;23.63;35.57;102126.31;5104361;27;20146;-43
2022/05/06 06:03:18;;;;;;;0.10;0.10;;;;;;;23.63;35.29;102128.25;5113150;27;20043;-44
2022/05/06 06:05:44;;;;;;;0.10;0.10;;;;;;;23.65;35.57;102129.66;5111441;27;20126;-44
2022/05/06 06:08:11;;;;;;;0.10;0.10;;;;;;;23.65;35.35;102129.66;5110439;27;20417;-44
2022/05/06 06:10:36;;;;;;;0.10;0.10;;;;;;;23.66;35.44;102131.34;5111268;27;20137;-44
2022/05/06 06:13:04;;;;;;;0.10;0.10;;;;;;;23.66;35.46;102125.78;5109535;27;20067;-43
2022/05/06 06:15:30;;;;;;;0.10;0.10;;;;;;;23.66;35.54;102127.72;5116203;27;20083;-42
2022/05/06 06:17:56;;;;;;;0.10;0.10;;;;;;;23.65;35.58;102128.81;5114299;27;20048;-43
2022/05/06 06:20:23;;;;;;;0.10;0.10;;;;;;;23.66;35.56;102130.50;5105971;27;20512;-44
2022/05/06 06:22:50;;;;;;;0.10;0.10;;;;;;;23.65;35.61;102134.38;5106045;28;20189;-44
2022/05/06 06:25:16;;;;;;;0.10;0.10;;;;;;;23.65;35.69;102134.38;5110454;28;20182;-44
2022/05/06 06:27:43;;;;;;;0.10;0.10;;;;;;;23.64;35.68;102130.75;5105870;27;20394;-42
2022/05/06 06:30:10;;;;;;;0.10;0.10;;;;;;;23.64;35.50;102135.47;5092210;28;20183;-43
2022/05/06 06:32:35;;;;;;;0.10;0.10;;;;;;;23.64;35.54;102133.53;5109783;28;20585;-43
2022/05/06 06:35:01;;;;;;;0.10;0.10;;;;;;;23.63;35.70;102133.81;5116564;27;20100;-44
2022/05/06 06:37:27;;;;;;;0.10;0.10;;;;;;;23.35;34.99;102141.66;5108462;27;20062;-42
2022/05/06 06:39:53;;;;;;;0.32;0.20;;;;;;;22.83;36.17;102144.69;5113240;27;20462;-43
2022/05/06 06:42:19;;;;;;;0.10;0.10;;;;;;;23.21;35.77;102143.34;5113176;28;20039;-41
2022/05/06 06:44:45;;;;;;;0.10;0.10;;;;;;;23.38;35.58;102141.09;5109947;27;20046;-41
2022/05/06 06:47:11;;;;;;;0.10;0.10;;;;;;;23.45;35.41;102146.38;5110049;27;20470;-43
2022/05/06 06:49:36;;;;;;;0.10;0.10;;;;;;;23.51;35.40;102142.47;5109052;27;20042;-44
2022/05/06 06:52:04;;;;;;;0.10;0.10;;;;;;;23.51;35.36;102143.28;5110414;27;20516;-43
2022/05/06 06:54:30;;;;;;;0.10;0.10;;;;;;;23.53;35.41;102151.34;5110663;27;20640;-44
2022/05/06 06:56:55;;;;;;;0.10;0.10;;;;;;;23.53;35.55;102146.63;5116645;27;20059;-44
2022/05/06 06:59:21;;;;;;;0.10;0.10;;;;;;;23.53;35.62;102160.53;5109486;27;20054;-44
2022/05/06 07:01:47;;;;;;;0.10;0.10;;;;;;;23.54;35.56;102156.63;5104351;27;20043;-44
2022/05/06 07:04:13;;;;;;;0.10;0.10;;;;;;;23.53;35.58;102152.19;5103763;28;20471;-44
2022/05/06 07:12:11;;;;;;;0.10;0.10;;;;;;;23.52;35.60;102160.81;5092551;27;20450;-43
2022/05/06 07:14:36;;;;;;;0.10;0.10;;;;;;;23.53;35.82;102165.25;5101223;27;20488;-42
2022/05/06 07:17:04;;;;;;;0.10;0.10;;;;;;;23.52;35.80;102169.16;5108590;27;20055;-43
2022/05/06 07:19:30;;;;;;;0.10;0.10;;;;;;;23.52;35.75;102160.81;5104267;27;20515;-42
2022/05/06 07:21:56;;;;;;;0.10;0.10;;;;;;;23.52;35.73;102160.81;5113006;27;20318;-43
2022/05/06 07:24:24;;;;;;;0.10;0.10;;;;;;;23.50;35.78;102160.25;5110221;27;20050;-43
2022/05/06 07:26:50;;;;;;;0.00;0.00;;;;;;;23.50;35.85;102157.50;5118256;27;20073;-43
2022/05/06 07:29:16;;;;;;;0.10;0.10;;;;;;;23.50;35.82;102163.88;5111880;27;20130;-43
2022/05/06 07:31:43;;;;;;;0.10;0.10;;;;;;;23.48;35.79;102166.09;5116555;27;20398;-43
2022/05/06 07:34:10;;;;;;;0.10;0.10;;;;;;;23.49;35.94;102162.22;5109999;27;20177;-44
2022/05/06 07:36:41;;;;;;;0.10;0.10;;;;;;;23.48;35.91;102170.81;5112336;27;20142;-44
2022/05/06 07:39:09;;;;;;;0.10;0.10;;;;;;;23.47;35.94;102163.59;5112395;27;20071;-43
2022/05/06 07:41:35;;;;;;;0.10;0.10;;;;;;;23.47;35.87;102166.38;5112972;28;20502;-43
2022/05/06 07:44:00;;;;;;;0.10;0.10;;;;;;;23.46;35.93;102171.09;5110981;27;20478;-42
2022/05/06 07:46:26;;;;;;;0.10;0.10;;;;;;;23.46;35.98;102164.72;5112881;27;20115;-43
2022/05/06 07:48:52;;;;;;;0.10;0.10;;;;;;;23.44;35.97;102166.94;5110030;27;20054;-43
2022/05/06 07:51:18;;;;;;;0.10;0.10;;;;;;;23.44;35.89;102164.97;5111525;27;20051;-43
2022/05/06 07:53:43;;;;;;;0.10;0.10;;;;;;;23.43;36.02;102162.50;5107851;28;20441;-43
2022/05/06 07:56:09;;;;;;;0.10;0.10;;;;;;;23.42;36.24;102161.66;5109800;27;20047;-43
2022/05/06 07:58:38;;;;;;;0.10;0.10;;;;;;;23.40;36.03;102160.25;5106065;27;20051;-43
2022/05/06 08:01:05;;;;;;;0.10;0.10;;;;;;;23.39;36.15;102155.81;5110677;27;20082;-43
2022/05/06 08:06:16;;;;;;;0.10;0.10;;;;;;;23.37;36.04;102155.28;5091487;28;20070;-43
2022/05/06 08:08:42;;;;;;;0.10;0.10;;;;;;;23.36;36.07;102154.44;5103087;27;20051;-43
2022/05/06 08:11:08;;;;;;;0.10;0.10;;;;;;;23.35;36.17;102158.31;5107150;27;20040;-43
2022/05/06 08:13:33;;;;;;;0.10;0.10;;;;;;;23.32;36.10;102155.28;5107317;27;20927;-43
2022/05/06 08:15:59;;;;;;;0.10;0.10;;;;;;;23.32;36.18;102153.34;5098850;27;20063;-43
2022/05/06 08:18:25;;;;;;;0.10;0.10;;;;;;;23.31;36.31;102157.22;5098253;27;20046;-43
2022/05/06 08:20:51;;;;;;;0.10;0.10;;;;;;;23.29;36.19;102156.66;5102099;27;20505;-44
2022/05/06 08:23:19;;;;;;;0.10;0.10;;;;;;;23.28;36.33;102157.78;5107280;27;20066;-44
2022/05/06 08:25:47;;;;;;;0.10;0.10;;;;;;;23.26;36.38;102166.38;5109365;27;20086;-38
2022/05/06 08:28:14;;;;;;;0.10;0.10;;;;;;;23.26;36.34;102162.78;5092417;27;20039;-34
2022/05/06 08:30:40;;;;;;;0.10;0.10;;;;;;;23.24;36.36;102157.50;5104284;27;20065;-34
2022/05/06 08:33:05;;;;;;;0.10;0.10;;;;;;;23.23;36.37;102161.41;5105464;27;20043;-35
2022/05/06 08:35:32;;;;;;;0.10;0.10;;;;;;;23.21;36.39;102157.22;5101496;27;20036;-34
2022/05/06 08:37:58;;;;;;;0.25;0.25;;;;;;;23.21;36.53;102154.44;5086262;27;20147;-34
2022/05/06 08:40:26;;;;;;;0.10;0.10;;;;;;;23.19;36.55;102151.13;5101439;27;20125;-34
2022/05/06 08:42:52;;;;;;;0.10;0.10;;;;;;;23.18;36.56;102155.81;5108578;27;20081;-34
2022/05/06 08:50:54;;;;;;;0.10;0.10;;;;;;;23.14;36.57;102154.72;5097143;27;20154;-34
2022/05/06 08:53:22;;;;;;;0.10;0.10;;;;;;;23.13;36.82;102155.84;5110083;27;20044;-33
2022/05/06 08:55:50;;;;;;;0.10;0.10;;;;;;;23.12;36.61;102154.19;5104822;27;20070;-34
2022/05/06 08:58:16;;;;;;;0.10;0.10;;;;;;;23.10;36.62;102150.84;5082350;27;20165;-34
2022/05/06 09:00:42;;;;;;;0.10;0.10;;;;;;;23.10;36.68;102155.56;5095773;27;20365;-35
2022/05/06 09:03:08;;;;;;;0.10;0.10;;;;;;;23.08;36.62;102158.63;5106415;27;20191;-34
2022/05/06 09:05:47;;;;;;;0.10;0.10;;;;;;;23.08;36.87;102152.22;5091514;28;20126;-34
2022/05/06 09:08:13;;;;;;;0.10;0.10;;;;;;;23.07;36.74;102153.34;5106461;27;20139;-34
2022/05/06 09:10:39;;;;;;;0.10;0.10;;;;;;;23.06;36.80;102151.66;5107414;27;20401;-34
2022/05/06 09:13:05;;;;;;;0.10;0.10;;;;;;;23.03;36.82;102148.34;5112940;27;20046;-34
2022/05/06 09:18:19;;;;;;;0.20;0.20;;;;;;;23.01;36.80;102150.59;5091879;27;20193;-35
2022/05/06 09:20:45;;;;;;;0.10;0.10;;;;;;;23.01;37.00;102152.50;5101185;27;20138;-35
2022/05/06 09:23:22;;;;;;;0.10;0.10;;;;;;;22.99;36.86;102151.97;5103902;28;20050;-35
2022/05/06 09:25:50;;;;;;;0.10;0.10;;;;;;;22.98;36.92;102140.00;5096381;28;20134;-35
2022/05/06 09:28:25;;;;;;;0.10;0.10;;;;;;;22.98;36.84;102141.97;5089305;27;20107;-35
2022/05/06 09:31:02;;;;;;;0.10;0.10;;;;;;;22.13;39.10;102147.84;5088918;27;20055;-47
2022/05/06 09:33:29;;;;;;;0.55;0.47;;;;;;;22.33;38.43;102149.88;5092544;27;20130;-30
2022/05/06 09:35:56;;;;;;;0.10;0.10;;;;;;;22.48;37.87;102143.53;5104118;27;20446;-30
2022/05/06 09:38:24;;;;;;;0.10;0.10;;;;;;;22.53;37.80;102141.56;5096318;27;20513;-30
2022/05/06 09:40:51;;;;;;;0.10;0.10;;;;;;;22.52;37.76;102151.03;5097727;27;20766;-30
2022/05/06 09:43:18;;;;;;;0.10;0.10;;;;;;;22.57;37.72;102141.88;5100506;27;20138;-31
2022/05/06 09:45:44;;;;;;;0.10;0.10;;;;;;;22.56;37.78;102140.22;5107524;27;20520;-31
2022/05/06 09:48:11;;;;;;;0.10;0.10;;;;;;;22.58;37.76;102148.25;5082290;27;21866;-32
2022/05/06 09:50:39;;;;;;;0.10;0.10;;;;;;;22.58;37.71;102145.47;5096754;27;20054;-29
2022/05/06 09:53:07;;;;;;;0.10;0.10;;;;;;;22.56;37.81;102140.22;5104807;27;20462;-31
2022/05/06 09:55:36;;;;;;;0.10;0.10;;;;;;;22.56;37.73;102140.22;5105092;27;20526;-29
2022/05/06 09:58:02;;;;;;;0.10;0.10;;;;;;;22.57;37.88;102141.03;5106943;27;21691;-31
2022/05/06 10:00:28;;;;;;;0.10;0.10;;;;;;;22.56;37.88;102145.75;5103954;27;20423;-32
2022/05/06 10:02:54;;;;;;;0.10;0.10;;;;;;;22.55;37.83;102135.78;5114333;27;20130;-30
2022/05/06 10:05:21;;;;;;;0.10;0.10;;;;;;;22.55;37.92;102138.53;5107678;27;20058;-30
2022/05/06 10:07:47;;;;;;;0.20;0.20;;;;;;;22.55;37.68;102130.22;5107669;27;20701;-30
2022/05/06 10:10:19;;;;;;;0.10;0.10;;;;;;;22.56;37.96;102128.28;5106581;27;20482;-30
2022/05/06 10:12:53;;;;;;;0.10;0.10;;;;;;;22.54;38.00;102123.00;5073833;28;20180;-30
2022/05/06 10:15:20;;;;;;;0.10;0.10;;;;;;;22.52;37.97;102126.03;5110158;27;20138;-30
2022/05/06 10:17:49;;;;;;;0.20;0.20;;;;;;;22.52;37.84;102120.47;5112678;27;20126;-30
2022/05/06 10:23:12;;;;;;;0.10;0.10;;;;;;;;;;5152639;27;20129;-29
2022/05/06 10:34:14;;;;;;;0.10;0.10;;;;;;;22.49;37.94;102126.56;5128390;27;20053;-28
2022/05/06 10:36:41;;;;;;;;;;;;;;;22.47;37.98;102114.94;5136705;27;20129;-29
2022/05/06 10:39:24;;;;;;;0.10;0.10;;;;;;;22.47;37.98;102112.16;5132182;27;19931;-30
2022/05/06 10:42:06;;;;;;;0.10;0.10;;;;;;;22.48;37.88;102118.53;5149841;27;20180;-29
2022/05/06 10:44:48;;;;;;;0.10;0.10;;;;;;;22.47;37.91;102112.16;5140632;27;20546;-31
2022/05/06 10:49:52;;;;;;;0.20;0.20;;;;;;;22.47;37.87;102103.81;5147480;27;20205;-28
2022/05/06 10:55:00;;;;;;;0.10;0.10;;;;;;;22.46;37.91;102101.34;5171177;27;20216;-28
2022/05/06 10:57:29;;;;;;;0.10;0.10;;;;;;;22.45;37.88;102103.28;5149078;27;20457;-28
2022/05/06 10:59:57;;;;;;;0.10;0.10;;;;;;;22.46;37.97;102095.78;5147484;27;20595;-28
2022/05/06 11:02:23;;;;;;;;;;;;;;;22.44;37.95;102100.75;5147695;27;20516;-29
2022/05/06 11:04:56;;;;;;;0.10;0.10;;;;;;;22.44;37.96;102097.97;5149568;27;19931;-28
2022/05/06 11:07:23;;;;;;;0.10;0.10;;;;;;;22.43;38.02;102102.69;5149671;27;21226;-29
2022/05/06 11:09:49;;;;;;;0.10;0.10;;;;;;;22.42;37.66;102095.50;5143557;27;20149;-28
2022/05/06 11:12:37;;;;;;;0.10;0.10;;;;;;;22.42;37.90;102095.50;5129561;27;20054;-27
2022/05/06 11:15:05;;;;;;;0.10;0.10;;;;;;;22.41;37.94;102093.84;5132766;27;20451;-28
2022/05/06 11:17:32;;;;;;;0.10;0.10;;;;;;;22.41;37.95;102091.06;5152988;27;20529;-28
2022/05/06 11:19:59;;;;;;;0.10;0.10;;;;;;;22.42;37.90;102086.34;5128766;27;20098;-29
2022/05/06 11:22:25;;;;;;;0.17;0.17;;;;;;;22.42;37.94;102080.78;5149913;27;20093;-28
2022/05/06 11:24:58;;;;;;;0.10;0.10;;;;;;;22.41;38.05;102090.19;5153101;27;20125;-27
2022/05/06 11:27:25;;;;;;;0.10;0.10;;;;;;;22.41;37.70;102088.28;5154168;27;20094;-29
2022/05/06 11:29:55;;;;;;;0.70;0.38;;;;;;;22.40;37.98;102080.22;5150645;27;20047;-30
2022/05/06 11:32:21;;;;;;;0.10;0.10;;;;;;;22.40;37.90;102083.81;5148159;27;20171;-30
2022/05/06 11:34:54;;;;;;;0.10;0.10;;;;;;;22.39;37.96;102084.09;5154461;27;20133;-30
2022/05/06 11:37:21;;;;;;;0.10;0.10;;;;;;;22.37;37.96;102087.16;5112284;27;20039;-31
2022/05/06 11:39:48;;;;;;;0.10;0.10;;;;;;;22.38;37.95;102083.28;5153609;27;20487;-30
2022/05/06 11:42:22;;;;;;;0.10;0.10;;;;;;;22.38;37.97;102082.44;5131648;27;20525;-30
2022/05/06 11:47:49;;;;;;;0.17;0.17;;;;;;;22.37;38.05;102072.44;5120716;27;20083;-30
2022/05/06 11:50:15;;;;;;;0.10;0.10;;;;;;;22.36;37.94;102071.59;5127126;27;20047;-31
2022/05/06 11:52:42;;;;;;;0.10;0.10;;;;;;;22.37;38.11;102072.44;5136574;27;20047;-32
2022/05/06 11:55:08;;;;;;;0.10;0.10;;;;;;;22.36;38.09;102062.44;5134247;27;20074;-29
2022/05/06 11:57:35;;;;;;;0.10;0.10;;;;;;;22.37;38.02;102069.69;5111188;27;20039;-31
2022/05/06 12:00:05;;;;;;;0.10;0.10;;;;;;;22.36;38.08;102068.81;5125120;27;20507;-32
2022/05/06 12:02:31;;;;;;;0.10;0.10;;;;;;;22.35;38.02;102067.16;5126854;27;20140;-30
2022/05/06 12:04:56;;;;;;;0.15;0.15;;;;;;;22.35;38.10;102064.38;5126694;27;20050;-29
2022/05/06 12:07:44;;;;;;;0.10;0.10;;;;;;;22.34;37.99;102054.41;5117474;27;20066;-30
2022/05/06 12:10:10;;;;;;;0.10;0.10;;;;;;;22.35;38.11;102056.06;5092529;27;20465;-30
2022/05/06 12:12:55;;;;;;;1.08;0.22;;;;;;;22.34;38.24;102057.19;5117065;27;20074;-30
2022/05/06 12:15:28;;;;;;;0.10;0.10;;;;;;;22.34;38.14;102057.19;5120774;27;20608;-30
2022/05/06 12:18:11;;;;;;;0.10;0.10;;;;;;;22.34;38.15;102059.13;5098227;28;20134;-30